sensor_id;sensor_type;location;lat;lon;timestamp;P1;durP1;ratioP1;P2;durP2;ratioP2
5704;SDS011;2877;48.238;11.160;2023-04-03T00:01:20;8.17;;;5.50;;
5704;SDS011;2877;48.238;11.160;2023-04-03T00:03:46;6.70;;;5.70;;
5704;SDS011;2877;48.238;11.160;2023-04-03T00:06:12;5.90;;;5.07;;
5704;SDS011;2877;48.238;11.160;2023-04-03T00:08:38;6.10;;;5.33;;
5704;SDS011;2877;48.238;11.160;2023-04-03T00:11:05;7.57;;;5.40;;
5704;SDS011;2877;48.238;11.160;2023-04-03T00:13:30;5.37;;;4.87;;
5704;SDS011;2877;48.238;11.160;2023-04-03T00:15:57;4.93;;;4.43;;
5704;SDS011;2877;48.238;11.160;2023-04-03T00:18:23;4.97;;;4.47;;
5704;SDS011;2877;48.238;11.160;2023-04-03T00:20:49;5.70;;;4.80;;
5704;SDS011;2877;48.238;11.160;2023-04-03T00:23:14;4.60;;;3.60;;
5704;SDS011;2877;48.238;11.160;2023-04-03T00:25:41;4.50;;;3.93;;
5704;SDS011;2877;48.238;11.160;2023-04-03T00:28:07;6.20;;;4.40;;
5704;SDS011;2877;48.238;11.160;2023-04-03T00:30:32;6.00;;;4.40;;
5704;SDS011;2877;48.238;11.160;2023-04-03T00:32:58;6.07;;;4.13;;
5704;SDS011;2877;48.238;11.160;2023-04-03T00:35:24;4.00;;;3.60;;
5704;SDS011;2877;48.238;11.160;2023-04-03T00:37:53;5.00;;;4.50;;
5704;SDS011;2877;48.238;11.160;2023-04-03T00:40:20;4.67;;;3.60;;
5704;SDS011;2877;48.238;11.160;2023-04-03T00:42:48;4.30;;;3.90;;
5704;SDS011;2877;48.238;11.160;2023-04-03T00:45:23;5.10;;;3.70;;
5704;SDS011;2877;48.238;11.160;2023-04-03T00:47:57;2.80;;;2.57;;
5704;SDS011;2877;48.238;11.160;2023-04-03T00:50:25;3.57;;;3.07;;
5704;SDS011;2877;48.238;11.160;2023-04-03T00:52:52;2.60;;;2.40;;
5704;SDS011;2877;48.238;11.160;2023-04-03T00:55:18;3.20;;;2.80;;
5704;SDS011;2877;48.238;11.160;2023-04-03T00:57:45;2.80;;;2.60;;
5704;SDS011;2877;48.238;11.160;2023-04-03T01:00:13;3.43;;;2.37;;
5704;SDS011;2877;48.238;11.160;2023-04-03T01:02:41;2.40;;;2.30;;
5704;SDS011;2877;48.238;11.160;2023-04-03T01:05:07;2.90;;;2.60;;
5704;SDS011;2877;48.238;11.160;2023-04-03T01:07:33;3.90;;;2.47;;
5704;SDS011;2877;48.238;11.160;2023-04-03T01:10:04;2.20;;;2.10;;
5704;SDS011;2877;48.238;11.160;2023-04-03T01:12:33;8.23;;;2.10;;
5704;SDS011;2877;48.238;11.160;2023-04-03T01:15:06;2.10;;;1.97;;
5704;SDS011;2877;48.238;11.160;2023-04-03T01:17:35;2.40;;;2.20;;
5704;SDS011;2877;48.238;11.160;2023-04-03T01:25:25;2.43;;;2.20;;
5704;SDS011;2877;48.238;11.160;2023-04-03T01:27:50;2.27;;;2.07;;
5704;SDS011;2877;48.238;11.160;2023-04-03T01:30:17;1.80;;;1.70;;
5704;SDS011;2877;48.238;11.160;2023-04-03T01:32:44;1.80;;;1.70;;
5704;SDS011;2877;48.238;11.160;2023-04-03T01:35:09;2.43;;;2.00;;
5704;SDS011;2877;48.238;11.160;2023-04-03T01:37:35;1.87;;;1.77;;
5704;SDS011;2877;48.238;11.160;2023-04-03T01:40:02;2.03;;;1.90;;
5704;SDS011;2877;48.238;11.160;2023-04-03T01:42:28;2.47;;;2.10;;
5704;SDS011;2877;48.238;11.160;2023-04-03T01:44:54;1.90;;;1.80;;
5704;SDS011;2877;48.238;11.160;2023-04-03T01:47:20;2.27;;;1.93;;
5704;SDS011;2877;48.238;11.160;2023-04-03T01:49:46;1.93;;;1.83;;
5704;SDS011;2877;48.238;11.160;2023-04-03T01:52:11;2.13;;;2.03;;
5704;SDS011;2877;48.238;11.160;2023-04-03T01:54:37;2.20;;;1.90;;
5704;SDS011;2877;48.238;11.160;2023-04-03T01:57:02;2.20;;;2.00;;
5704;SDS011;2877;48.238;11.160;2023-04-03T01:59:28;2.47;;;2.20;;
5704;SDS011;2877;48.238;11.160;2023-04-03T02:01:54;1.93;;;1.73;;
5704;SDS011;2877;48.238;11.160;2023-04-03T02:04:19;2.03;;;1.93;;
5704;SDS011;2877;48.238;11.160;2023-04-03T02:06:45;2.80;;;2.07;;
5704;SDS011;2877;48.238;11.160;2023-04-03T02:09:10;2.20;;;2.10;;
5704;SDS011;2877;48.238;11.160;2023-04-03T02:11:36;2.20;;;2.10;;
5704;SDS011;2877;48.238;11.160;2023-04-03T02:14:01;2.67;;;2.47;;
5704;SDS011;2877;48.238;11.160;2023-04-03T02:16:27;1.83;;;1.73;;
5704;SDS011;2877;48.238;11.160;2023-04-03T02:18:53;4.00;;;2.40;;
5704;SDS011;2877;48.238;11.160;2023-04-03T02:21:19;2.27;;;2.17;;
5704;SDS011;2877;48.238;11.160;2023-04-03T02:23:45;2.43;;;2.23;;
5704;SDS011;2877;48.238;11.160;2023-04-03T02:26:11;2.10;;;2.00;;
5704;SDS011;2877;48.238;11.160;2023-04-03T02:28:38;2.30;;;2.10;;
5704;SDS011;2877;48.238;11.160;2023-04-03T02:31:05;2.67;;;1.93;;
5704;SDS011;2877;48.238;11.160;2023-04-03T02:33:31;2.30;;;2.20;;
5704;SDS011;2877;48.238;11.160;2023-04-03T02:35:57;2.23;;;2.13;;
5704;SDS011;2877;48.238;11.160;2023-04-03T02:38:23;2.50;;;2.30;;
5704;SDS011;2877;48.238;11.160;2023-04-03T02:40:50;2.40;;;2.20;;
5704;SDS011;2877;48.238;11.160;2023-04-03T02:43:16;2.23;;;2.03;;
5704;SDS011;2877;48.238;11.160;2023-04-03T02:45:42;2.50;;;2.30;;
5704;SDS011;2877;48.238;11.160;2023-04-03T02:48:08;2.40;;;2.30;;
5704;SDS011;2877;48.238;11.160;2023-04-03T02:50:34;2.20;;;2.10;;
5704;SDS011;2877;48.238;11.160;2023-04-03T02:52:59;2.40;;;2.23;;
5704;SDS011;2877;48.238;11.160;2023-04-03T02:55:25;2.40;;;2.30;;
5704;SDS011;2877;48.238;11.160;2023-04-03T02:57:51;2.40;;;2.30;;
5704;SDS011;2877;48.238;11.160;2023-04-03T03:00:16;4.40;;;2.47;;
5704;SDS011;2877;48.238;11.160;2023-04-03T03:02:42;3.20;;;1.90;;
5704;SDS011;2877;48.238;11.160;2023-04-03T03:05:08;2.30;;;2.20;;
5704;SDS011;2877;48.238;11.160;2023-04-03T03:07:33;2.47;;;2.27;;
5704;SDS011;2877;48.238;11.160;2023-04-03T03:09:59;2.70;;;2.50;;
5704;SDS011;2877;48.238;11.160;2023-04-03T03:12:24;2.17;;;2.07;;
5704;SDS011;2877;48.238;11.160;2023-04-03T03:14:50;2.53;;;2.33;;
5704;SDS011;2877;48.238;11.160;2023-04-03T03:17:16;4.33;;;2.40;;
5704;SDS011;2877;48.238;11.160;2023-04-03T03:19:42;2.40;;;2.30;;
5704;SDS011;2877;48.238;11.160;2023-04-03T03:22:08;2.43;;;2.23;;
5704;SDS011;2877;48.238;11.160;2023-04-03T03:24:34;2.40;;;2.20;;
5704;SDS011;2877;48.238;11.160;2023-04-03T03:26:59;2.23;;;2.10;;
5704;SDS011;2877;48.238;11.160;2023-04-03T03:29:25;2.60;;;2.40;;
5704;SDS011;2877;48.238;11.160;2023-04-03T03:31:50;2.90;;;2.57;;
5704;SDS011;2877;48.238;11.160;2023-04-03T03:34:16;3.83;;;2.57;;
5704;SDS011;2877;48.238;11.160;2023-04-03T03:36:42;3.70;;;2.10;;
5704;SDS011;2877;48.238;11.160;2023-04-03T03:39:07;2.33;;;2.13;;
5704;SDS011;2877;48.238;11.160;2023-04-03T03:41:33;4.10;;;2.50;;
5704;SDS011;2877;48.238;11.160;2023-04-03T03:43:58;2.73;;;2.30;;
5704;SDS011;2877;48.238;11.160;2023-04-03T03:46:24;2.50;;;2.30;;
5704;SDS011;2877;48.238;11.160;2023-04-03T03:48:50;3.10;;;2.43;;
5704;SDS011;2877;48.238;11.160;2023-04-03T03:51:15;2.90;;;2.70;;
5704;SDS011;2877;48.238;11.160;2023-04-03T03:53:41;3.90;;;2.57;;
5704;SDS011;2877;48.238;11.160;2023-04-03T03:56:07;3.10;;;2.70;;
5704;SDS011;2877;48.238;11.160;2023-04-03T03:58:33;3.07;;;2.30;;
5704;SDS011;2877;48.238;11.160;2023-04-03T04:01:02;3.50;;;2.47;;
5704;SDS011;2877;48.238;11.160;2023-04-03T04:03:30;5.70;;;2.63;;
5704;SDS011;2877;48.238;11.160;2023-04-03T04:05:56;3.20;;;2.77;;
5704;SDS011;2877;48.238;11.160;2023-04-03T04:08:21;2.67;;;2.47;;
5704;SDS011;2877;48.238;11.160;2023-04-03T04:10:47;2.73;;;2.50;;
5704;SDS011;2877;48.238;11.160;2023-04-03T04:13:13;3.23;;;2.70;;
5704;SDS011;2877;48.238;11.160;2023-04-03T04:15:38;3.37;;;2.17;;
5704;SDS011;2877;48.238;11.160;2023-04-03T04:18:04;2.87;;;2.57;;
5704;SDS011;2877;48.238;11.160;2023-04-03T04:20:29;2.90;;;2.33;;
5704;SDS011;2877;48.238;11.160;2023-04-03T04:22:55;2.50;;;2.30;;
5704;SDS011;2877;48.238;11.160;2023-04-03T04:25:20;2.83;;;2.60;;
5704;SDS011;2877;48.238;11.160;2023-04-03T04:27:46;1.80;;;1.70;;
5704;SDS011;2877;48.238;11.160;2023-04-03T04:30:11;2.47;;;2.27;;
5704;SDS011;2877;48.238;11.160;2023-04-03T04:32:37;1.90;;;1.80;;
5704;SDS011;2877;48.238;11.160;2023-04-03T04:35:03;2.30;;;2.20;;
5704;SDS011;2877;48.238;11.160;2023-04-03T04:37:29;2.23;;;2.10;;
5704;SDS011;2877;48.238;11.160;2023-04-03T04:39:55;3.33;;;2.63;;
5704;SDS011;2877;48.238;11.160;2023-04-03T04:42:20;2.63;;;2.40;;
5704;SDS011;2877;48.238;11.160;2023-04-03T04:44:46;2.83;;;2.53;;
5704;SDS011;2877;48.238;11.160;2023-04-03T04:47:11;3.00;;;2.80;;
5704;SDS011;2877;48.238;11.160;2023-04-03T04:49:37;3.80;;;2.67;;
5704;SDS011;2877;48.238;11.160;2023-04-03T04:52:03;3.17;;;2.50;;
5704;SDS011;2877;48.238;11.160;2023-04-03T04:54:28;3.50;;;2.47;;
5704;SDS011;2877;48.238;11.160;2023-04-03T04:56:54;4.43;;;2.60;;
5704;SDS011;2877;48.238;11.160;2023-04-03T04:59:20;3.37;;;3.07;;
5704;SDS011;2877;48.238;11.160;2023-04-03T05:01:45;5.37;;;2.60;;
5704;SDS011;2877;48.238;11.160;2023-04-03T05:04:11;2.70;;;2.50;;
5704;SDS011;2877;48.238;11.160;2023-04-03T05:06:37;3.40;;;3.10;;
5704;SDS011;2877;48.238;11.160;2023-04-03T05:09:03;3.13;;;2.93;;
5704;SDS011;2877;48.238;11.160;2023-04-03T05:11:28;4.50;;;3.23;;
5704;SDS011;2877;48.238;11.160;2023-04-03T05:13:54;4.50;;;2.90;;
5704;SDS011;2877;48.238;11.160;2023-04-03T05:16:20;5.40;;;3.00;;
5704;SDS011;2877;48.238;11.160;2023-04-03T05:18:45;4.80;;;2.80;;
5704;SDS011;2877;48.238;11.160;2023-04-03T05:21:11;5.20;;;3.30;;
5704;SDS011;2877;48.238;11.160;2023-04-03T05:23:37;4.83;;;3.40;;
5704;SDS011;2877;48.238;11.160;2023-04-03T05:26:02;3.80;;;3.30;;
5704;SDS011;2877;48.238;11.160;2023-04-03T05:28:28;3.83;;;3.20;;
5704;SDS011;2877;48.238;11.160;2023-04-03T05:30:54;3.30;;;3.00;;
5704;SDS011;2877;48.238;11.160;2023-04-03T05:33:24;3.17;;;2.87;;
5704;SDS011;2877;48.238;11.160;2023-04-03T05:35:51;3.30;;;2.60;;
5704;SDS011;2877;48.238;11.160;2023-04-03T05:38:17;2.97;;;2.60;;
5704;SDS011;2877;48.238;11.160;2023-04-03T05:40:42;2.93;;;2.70;;
5704;SDS011;2877;48.238;11.160;2023-04-03T05:43:08;3.23;;;2.93;;
5704;SDS011;2877;48.238;11.160;2023-04-03T05:45:33;2.77;;;2.50;;
5704;SDS011;2877;48.238;11.160;2023-04-03T05:47:59;2.87;;;2.60;;
5704;SDS011;2877;48.238;11.160;2023-04-03T05:50:25;4.37;;;3.17;;
5704;SDS011;2877;48.238;11.160;2023-04-03T05:52:50;3.43;;;3.13;;
5704;SDS011;2877;48.238;11.160;2023-04-03T05:55:20;2.90;;;2.70;;
5704;SDS011;2877;48.238;11.160;2023-04-03T05:57:45;3.63;;;3.33;;
5704;SDS011;2877;48.238;11.160;2023-04-03T06:00:12;4.03;;;3.17;;
5704;SDS011;2877;48.238;11.160;2023-04-03T06:02:40;3.20;;;2.90;;
5704;SDS011;2877;48.238;11.160;2023-04-03T06:05:06;3.13;;;2.60;;
5704;SDS011;2877;48.238;11.160;2023-04-03T06:07:33;3.80;;;3.00;;
5704;SDS011;2877;48.238;11.160;2023-04-03T06:09:59;5.60;;;3.07;;
5704;SDS011;2877;48.238;11.160;2023-04-03T06:12:25;2.70;;;2.50;;
5704;SDS011;2877;48.238;11.160;2023-04-03T06:14:51;3.73;;;3.00;;
5704;SDS011;2877;48.238;11.160;2023-04-03T06:17:17;3.50;;;3.20;;
5704;SDS011;2877;48.238;11.160;2023-04-03T06:19:43;3.90;;;3.30;;
5704;SDS011;2877;48.238;11.160;2023-04-03T06:22:09;3.63;;;2.93;;
5704;SDS011;2877;48.238;11.160;2023-04-03T06:24:36;3.30;;;2.60;;
5704;SDS011;2877;48.238;11.160;2023-04-03T06:27:02;3.20;;;2.90;;
5704;SDS011;2877;48.238;11.160;2023-04-03T06:29:28;2.97;;;2.70;;
5704;SDS011;2877;48.238;11.160;2023-04-03T06:31:54;3.23;;;2.80;;
5704;SDS011;2877;48.238;11.160;2023-04-03T06:34:20;4.70;;;3.23;;
5704;SDS011;2877;48.238;11.160;2023-04-03T06:36:46;3.07;;;2.63;;
5704;SDS011;2877;48.238;11.160;2023-04-03T06:39:16;3.30;;;3.00;;
5704;SDS011;2877;48.238;11.160;2023-04-03T06:41:45;6.63;;;3.10;;
5704;SDS011;2877;48.238;11.160;2023-04-03T06:44:11;3.43;;;3.07;;
5704;SDS011;2877;48.238;11.160;2023-04-03T06:46:38;3.50;;;3.20;;
5704;SDS011;2877;48.238;11.160;2023-04-03T06:49:04;3.57;;;3.27;;
5704;SDS011;2877;48.238;11.160;2023-04-03T06:51:32;3.13;;;2.83;;
5704;SDS011;2877;48.238;11.160;2023-04-03T06:53:58;3.43;;;3.13;;
5704;SDS011;2877;48.238;11.160;2023-04-03T06:56:24;3.80;;;3.37;;
5704;SDS011;2877;48.238;11.160;2023-04-03T06:58:51;4.33;;;2.93;;
5704;SDS011;2877;48.238;11.160;2023-04-03T07:01:19;4.87;;;3.80;;
5704;SDS011;2877;48.238;11.160;2023-04-03T07:03:45;4.90;;;3.13;;
5704;SDS011;2877;48.238;11.160;2023-04-03T07:06:13;3.67;;;3.37;;
5704;SDS011;2877;48.238;11.160;2023-04-03T07:08:39;3.33;;;3.03;;
5704;SDS011;2877;48.238;11.160;2023-04-03T07:11:05;3.13;;;2.93;;
5704;SDS011;2877;48.238;11.160;2023-04-03T07:13:31;3.67;;;3.30;;
5704;SDS011;2877;48.238;11.160;2023-04-03T07:15:57;4.20;;;3.43;;
5704;SDS011;2877;48.238;11.160;2023-04-03T07:18:23;3.73;;;3.40;;
5704;SDS011;2877;48.238;11.160;2023-04-03T07:20:49;4.83;;;3.13;;
5704;SDS011;2877;48.238;11.160;2023-04-03T07:23:15;4.63;;;3.40;;
5704;SDS011;2877;48.238;11.160;2023-04-03T07:25:48;3.83;;;3.00;;
5704;SDS011;2877;48.238;11.160;2023-04-03T07:28:15;5.30;;;3.13;;
5704;SDS011;2877;48.238;11.160;2023-04-03T07:30:42;4.60;;;3.30;;
5704;SDS011;2877;48.238;11.160;2023-04-03T07:33:12;3.90;;;3.50;;
5704;SDS011;2877;48.238;11.160;2023-04-03T07:35:39;3.23;;;3.03;;
5704;SDS011;2877;48.238;11.160;2023-04-03T07:38:06;4.37;;;3.00;;
5704;SDS011;2877;48.238;11.160;2023-04-03T07:40:33;3.13;;;2.83;;
5704;SDS011;2877;48.238;11.160;2023-04-03T07:42:58;3.20;;;3.00;;
5704;SDS011;2877;48.238;11.160;2023-04-03T07:45:24;3.63;;;2.87;;
5704;SDS011;2877;48.238;11.160;2023-04-03T07:47:50;4.87;;;3.60;;
5704;SDS011;2877;48.238;11.160;2023-04-03T07:50:16;5.43;;;3.37;;
5704;SDS011;2877;48.238;11.160;2023-04-03T07:52:42;3.57;;;3.27;;
5704;SDS011;2877;48.238;11.160;2023-04-03T07:55:08;3.80;;;3.13;;
5704;SDS011;2877;48.238;11.160;2023-04-03T07:57:33;3.77;;;3.40;;
5704;SDS011;2877;48.238;11.160;2023-04-03T08:00:01;4.13;;;3.10;;
5704;SDS011;2877;48.238;11.160;2023-04-03T08:02:27;3.20;;;3.00;;
5704;SDS011;2877;48.238;11.160;2023-04-03T08:04:53;4.13;;;3.43;;
5704;SDS011;2877;48.238;11.160;2023-04-03T08:07:18;3.10;;;2.83;;
5704;SDS011;2877;48.238;11.160;2023-04-03T08:09:44;4.07;;;3.47;;
5704;SDS011;2877;48.238;11.160;2023-04-03T08:12:09;3.03;;;2.77;;
5704;SDS011;2877;48.238;11.160;2023-04-03T08:14:36;4.10;;;3.20;;
5704;SDS011;2877;48.238;11.160;2023-04-03T08:17:02;6.57;;;3.30;;
5704;SDS011;2877;48.238;11.160;2023-04-03T08:19:29;5.17;;;3.40;;
5704;SDS011;2877;48.238;11.160;2023-04-03T08:21:56;3.67;;;3.37;;
5704;SDS011;2877;48.238;11.160;2023-04-03T08:24:23;7.50;;;3.93;;
5704;SDS011;2877;48.238;11.160;2023-04-03T08:26:49;4.03;;;3.40;;
5704;SDS011;2877;48.238;11.160;2023-04-03T08:29:15;3.73;;;3.30;;
5704;SDS011;2877;48.238;11.160;2023-04-03T08:31:40;3.10;;;2.90;;
5704;SDS011;2877;48.238;11.160;2023-04-03T08:34:06;3.27;;;3.00;;
5704;SDS011;2877;48.238;11.160;2023-04-03T08:36:31;7.37;;;3.27;;
5704;SDS011;2877;48.238;11.160;2023-04-03T08:38:57;3.40;;;3.10;;
5704;SDS011;2877;48.238;11.160;2023-04-03T08:44:09;2.90;;;2.70;;
5704;SDS011;2877;48.238;11.160;2023-04-03T08:49:47;4.47;;;3.70;;
5704;SDS011;2877;48.238;11.160;2023-04-03T08:55:04;2.93;;;2.60;;
5704;SDS011;2877;48.238;11.160;2023-04-03T08:57:33;4.80;;;3.03;;
5704;SDS011;2877;48.238;11.160;2023-04-03T09:00:05;3.90;;;3.10;;
5704;SDS011;2877;48.238;11.160;2023-04-03T09:02:41;3.50;;;3.20;;
5704;SDS011;2877;48.238;11.160;2023-04-03T09:05:11;3.43;;;3.00;;
5704;SDS011;2877;48.238;11.160;2023-04-03T09:07:42;3.47;;;3.17;;
5704;SDS011;2877;48.238;11.160;2023-04-03T09:10:12;3.23;;;3.00;;
5704;SDS011;2877;48.238;11.160;2023-04-03T09:12:39;4.60;;;3.07;;
5704;SDS011;2877;48.238;11.160;2023-04-03T09:15:10;4.73;;;2.80;;
5704;SDS011;2877;48.238;11.160;2023-04-03T09:17:49;4.90;;;3.40;;
5704;SDS011;2877;48.238;11.160;2023-04-03T09:26:42;2.90;;;2.70;;
5704;SDS011;2877;48.238;11.160;2023-04-03T09:29:01;3.00;;;2.70;;
5704;SDS011;2877;48.238;11.160;2023-04-03T09:31:38;2.60;;;2.40;;
5704;SDS011;2877;48.238;11.160;2023-04-03T09:34:08;4.23;;;2.90;;
5704;SDS011;2877;48.238;11.160;2023-04-03T09:36:41;3.17;;;2.87;;
5704;SDS011;2877;48.238;11.160;2023-04-03T09:39:15;3.40;;;3.10;;
5704;SDS011;2877;48.238;11.160;2023-04-03T09:42:00;3.00;;;2.70;;
5704;SDS011;2877;48.238;11.160;2023-04-03T09:44:32;3.53;;;2.97;;
5704;SDS011;2877;48.238;11.160;2023-04-03T09:47:02;3.70;;;2.80;;
5704;SDS011;2877;48.238;11.160;2023-04-03T09:50:10;3.67;;;3.33;;
5704;SDS011;2877;48.238;11.160;2023-04-03T09:52:46;3.83;;;2.67;;
5704;SDS011;2877;48.238;11.160;2023-04-03T09:55:14;3.03;;;2.83;;
5704;SDS011;2877;48.238;11.160;2023-04-03T09:57:42;2.60;;;2.40;;
5704;SDS011;2877;48.238;11.160;2023-04-03T10:03:02;2.97;;;2.77;;
5704;SDS011;2877;48.238;11.160;2023-04-03T10:05:32;3.73;;;3.33;;
5704;SDS011;2877;48.238;11.160;2023-04-03T10:08:08;3.67;;;2.90;;
5704;SDS011;2877;48.238;11.160;2023-04-03T10:10:40;4.10;;;2.80;;
5704;SDS011;2877;48.238;11.160;2023-04-03T10:13:29;2.60;;;2.40;;
5704;SDS011;2877;48.238;11.160;2023-04-03T10:24:21;2.57;;;2.37;;
5704;SDS011;2877;48.238;11.160;2023-04-03T10:35:08;3.00;;;2.60;;
5704;SDS011;2877;48.238;11.160;2023-04-03T10:38:11;3.43;;;2.90;;
5704;SDS011;2877;48.238;11.160;2023-04-03T10:40:55;3.47;;;2.83;;
5704;SDS011;2877;48.238;11.160;2023-04-03T10:43:50;3.00;;;2.60;;
5704;SDS011;2877;48.238;11.160;2023-04-03T10:46:43;2.70;;;2.50;;
5704;SDS011;2877;48.238;11.160;2023-04-03T10:49:17;4.17;;;2.80;;
5704;SDS011;2877;48.238;11.160;2023-04-03T10:51:49;3.17;;;2.83;;
5704;SDS011;2877;48.238;11.160;2023-04-03T10:54:38;3.30;;;3.00;;
5704;SDS011;2877;48.238;11.160;2023-04-03T10:57:08;4.13;;;3.33;;
5704;SDS011;2877;48.238;11.160;2023-04-03T10:59:36;3.20;;;3.00;;
5704;SDS011;2877;48.238;11.160;2023-04-03T11:02:20;3.73;;;2.10;;
5704;SDS011;2877;48.238;11.160;2023-04-03T11:05:30;3.00;;;2.70;;
5704;SDS011;2877;48.238;11.160;2023-04-03T11:08:24;3.80;;;2.23;;
5704;SDS011;2877;48.238;11.160;2023-04-03T11:11:16;2.47;;;2.30;;
5704;SDS011;2877;48.238;11.160;2023-04-03T11:13:49;3.00;;;2.20;;
5704;SDS011;2877;48.238;11.160;2023-04-03T11:16:29;4.87;;;2.60;;
5704;SDS011;2877;48.238;11.160;2023-04-03T11:21:43;3.07;;;2.80;;
5704;SDS011;2877;48.238;11.160;2023-04-03T11:24:20;2.50;;;2.30;;
5704;SDS011;2877;48.238;11.160;2023-04-03T11:26:50;3.20;;;2.70;;
5704;SDS011;2877;48.238;11.160;2023-04-03T11:29:22;2.83;;;2.40;;
5704;SDS011;2877;48.238;11.160;2023-04-03T11:34:44;3.33;;;2.70;;
5704;SDS011;2877;48.238;11.160;2023-04-03T11:37:17;2.30;;;2.13;;
5704;SDS011;2877;48.238;11.160;2023-04-03T11:40:39;4.00;;;2.83;;
5704;SDS011;2877;48.238;11.160;2023-04-03T11:46:04;7.80;;;2.67;;
5704;SDS011;2877;48.238;11.160;2023-04-03T11:51:00;2.73;;;2.30;;
5704;SDS011;2877;48.238;11.160;2023-04-03T11:53:47;3.80;;;2.57;;
5704;SDS011;2877;48.238;11.160;2023-04-03T12:04:15;2.50;;;2.30;;
5704;SDS011;2877;48.238;11.160;2023-04-03T12:11:52;2.30;;;2.20;;
5704;SDS011;2877;48.238;11.160;2023-04-03T12:14:21;4.30;;;2.37;;
5704;SDS011;2877;48.238;11.160;2023-04-03T12:16:50;2.73;;;2.07;;
5704;SDS011;2877;48.238;11.160;2023-04-03T12:19:38;2.80;;;2.40;;
5704;SDS011;2877;48.238;11.160;2023-04-03T12:24:37;2.00;;;1.90;;
5704;SDS011;2877;48.238;11.160;2023-04-03T12:32:37;2.10;;;1.60;;
5704;SDS011;2877;48.238;11.160;2023-04-03T12:35:24;1.90;;;1.80;;
5704;SDS011;2877;48.238;11.160;2023-04-03T12:38:21;2.40;;;1.70;;
5704;SDS011;2877;48.238;11.160;2023-04-03T12:48:39;7.50;;;1.50;;
5704;SDS011;2877;48.238;11.160;2023-04-03T12:51:21;1.60;;;1.50;;
5704;SDS011;2877;48.238;11.160;2023-04-03T12:53:56;1.90;;;1.80;;
5704;SDS011;2877;48.238;11.160;2023-04-03T12:56:30;8.80;;;2.00;;
5704;SDS011;2877;48.238;11.160;2023-04-03T13:01:59;1.63;;;1.50;;
5704;SDS011;2877;48.238;11.160;2023-04-03T13:04:29;6.03;;;2.00;;
5704;SDS011;2877;48.238;11.160;2023-04-03T13:06:56;3.40;;;1.50;;
5704;SDS011;2877;48.238;11.160;2023-04-03T13:09:26;2.40;;;1.90;;
5704;SDS011;2877;48.238;11.160;2023-04-03T13:12:07;2.60;;;1.83;;
5704;SDS011;2877;48.238;11.160;2023-04-03T13:14:36;3.83;;;2.00;;
5704;SDS011;2877;48.238;11.160;2023-04-03T13:17:15;2.23;;;1.67;;
5704;SDS011;2877;48.238;11.160;2023-04-03T13:19:42;2.17;;;1.83;;
5704;SDS011;2877;48.238;11.160;2023-04-03T13:24:58;2.13;;;1.90;;
5704;SDS011;2877;48.238;11.160;2023-04-03T13:27:27;3.03;;;1.90;;
5704;SDS011;2877;48.238;11.160;2023-04-03T13:29:56;1.80;;;1.70;;
5704;SDS011;2877;48.238;11.160;2023-04-03T13:32:24;1.70;;;1.60;;
5704;SDS011;2877;48.238;11.160;2023-04-03T13:34:52;1.70;;;1.60;;
5704;SDS011;2877;48.238;11.160;2023-04-03T13:37:25;1.70;;;1.60;;
5704;SDS011;2877;48.238;11.160;2023-04-03T13:42:34;2.27;;;2.10;;
5704;SDS011;2877;48.238;11.160;2023-04-03T13:50:33;1.87;;;1.73;;
5704;SDS011;2877;48.238;11.160;2023-04-03T13:53:26;2.30;;;1.70;;
5704;SDS011;2877;48.238;11.160;2023-04-03T13:58:29;2.53;;;1.60;;
5704;SDS011;2877;48.238;11.160;2023-04-03T14:01:00;1.53;;;1.43;;
5704;SDS011;2877;48.238;11.160;2023-04-03T14:06:16;2.90;;;1.40;;
5704;SDS011;2877;48.238;11.160;2023-04-03T14:08:43;1.60;;;1.20;;
5704;SDS011;2877;48.238;11.160;2023-04-03T14:11:11;1.40;;;1.30;;
5704;SDS011;2877;48.238;11.160;2023-04-03T14:13:41;1.50;;;1.20;;
5704;SDS011;2877;48.238;11.160;2023-04-03T14:16:07;1.80;;;1.30;;
5704;SDS011;2877;48.238;11.160;2023-04-03T14:18:36;1.60;;;1.50;;
5704;SDS011;2877;48.238;11.160;2023-04-03T14:21:02;1.60;;;1.00;;
5704;SDS011;2877;48.238;11.160;2023-04-03T14:23:27;1.47;;;1.20;;
5704;SDS011;2877;48.238;11.160;2023-04-03T14:25:53;2.40;;;1.17;;
5704;SDS011;2877;48.238;11.160;2023-04-03T14:28:20;2.20;;;1.03;;
5704;SDS011;2877;48.238;11.160;2023-04-03T14:30:48;3.37;;;1.50;;
5704;SDS011;2877;48.238;11.160;2023-04-03T14:33:16;1.77;;;1.03;;
5704;SDS011;2877;48.238;11.160;2023-04-03T14:35:44;1.00;;;1.00;;
5704;SDS011;2877;48.238;11.160;2023-04-03T14:38:24;8.40;;;1.10;;
5704;SDS011;2877;48.238;11.160;2023-04-03T14:40:52;2.30;;;1.17;;
5704;SDS011;2877;48.238;11.160;2023-04-03T14:43:20;2.10;;;1.30;;
5704;SDS011;2877;48.238;11.160;2023-04-03T14:45:46;3.97;;;1.10;;
5704;SDS011;2877;48.238;11.160;2023-04-03T14:48:21;3.40;;;1.23;;
5704;SDS011;2877;48.238;11.160;2023-04-03T14:50:48;1.13;;;1.03;;
5704;SDS011;2877;48.238;11.160;2023-04-03T14:53:15;1.37;;;1.10;;
5704;SDS011;2877;48.238;11.160;2023-04-03T14:55:43;2.43;;;1.30;;
5704;SDS011;2877;48.238;11.160;2023-04-03T14:58:14;3.43;;;1.70;;
5704;SDS011;2877;48.238;11.160;2023-04-03T15:00:41;1.33;;;1.23;;
5704;SDS011;2877;48.238;11.160;2023-04-03T15:03:14;1.60;;;1.50;;
5704;SDS011;2877;48.238;11.160;2023-04-03T15:05:45;0.93;;;0.80;;
5704;SDS011;2877;48.238;11.160;2023-04-03T15:08:16;2.50;;;1.50;;
5704;SDS011;2877;48.238;11.160;2023-04-03T15:10:45;1.70;;;1.40;;
5704;SDS011;2877;48.238;11.160;2023-04-03T15:13:11;1.63;;;1.13;;
5704;SDS011;2877;48.238;11.160;2023-04-03T15:15:37;1.23;;;1.20;;
5704;SDS011;2877;48.238;11.160;2023-04-03T15:18:02;1.57;;;1.10;;
5704;SDS011;2877;48.238;11.160;2023-04-03T15:20:28;1.07;;;1.00;;
5704;SDS011;2877;48.238;11.160;2023-04-03T15:22:58;1.17;;;0.77;;
5704;SDS011;2877;48.238;11.160;2023-04-03T15:25:28;3.00;;;1.10;;
5704;SDS011;2877;48.238;11.160;2023-04-03T15:27:55;2.10;;;1.30;;
5704;SDS011;2877;48.238;11.160;2023-04-03T15:30:21;1.53;;;1.10;;
5704;SDS011;2877;48.238;11.160;2023-04-03T15:32:47;1.37;;;0.93;;
5704;SDS011;2877;48.238;11.160;2023-04-03T15:35:13;1.00;;;0.93;;
5704;SDS011;2877;48.238;11.160;2023-04-03T15:37:39;1.80;;;1.20;;
5704;SDS011;2877;48.238;11.160;2023-04-03T15:40:05;1.23;;;0.80;;
5704;SDS011;2877;48.238;11.160;2023-04-03T15:42:32;1.03;;;1.00;;
5704;SDS011;2877;48.238;11.160;2023-04-03T15:44:57;1.33;;;1.10;;
5704;SDS011;2877;48.238;11.160;2023-04-03T15:47:24;1.57;;;0.97;;
5704;SDS011;2877;48.238;11.160;2023-04-03T15:49:50;0.80;;;0.80;;
5704;SDS011;2877;48.238;11.160;2023-04-03T15:52:16;3.00;;;1.20;;
5704;SDS011;2877;48.238;11.160;2023-04-03T15:54:41;2.20;;;0.90;;
5704;SDS011;2877;48.238;11.160;2023-04-03T15:57:07;1.03;;;0.90;;
5704;SDS011;2877;48.238;11.160;2023-04-03T15:59:32;1.00;;;0.90;;
5704;SDS011;2877;48.238;11.160;2023-04-03T16:01:58;2.50;;;0.90;;
5704;SDS011;2877;48.238;11.160;2023-04-03T16:04:26;1.43;;;1.00;;
5704;SDS011;2877;48.238;11.160;2023-04-03T16:06:52;1.60;;;1.00;;
5704;SDS011;2877;48.238;11.160;2023-04-03T16:09:18;3.03;;;1.20;;
5704;SDS011;2877;48.238;11.160;2023-04-03T16:11:44;0.80;;;0.80;;
5704;SDS011;2877;48.238;11.160;2023-04-03T16:14:10;1.27;;;1.10;;
5704;SDS011;2877;48.238;11.160;2023-04-03T16:16:35;3.17;;;1.57;;
5704;SDS011;2877;48.238;11.160;2023-04-03T16:19:02;1.57;;;1.00;;
5704;SDS011;2877;48.238;11.160;2023-04-03T16:21:28;2.07;;;1.10;;
5704;SDS011;2877;48.238;11.160;2023-04-03T16:23:55;1.20;;;1.10;;
5704;SDS011;2877;48.238;11.160;2023-04-03T16:26:26;2.40;;;0.87;;
5704;SDS011;2877;48.238;11.160;2023-04-03T16:28:52;2.07;;;1.30;;
5704;SDS011;2877;48.238;11.160;2023-04-03T16:31:18;1.30;;;1.20;;
5704;SDS011;2877;48.238;11.160;2023-04-03T16:33:44;3.10;;;1.03;;
5704;SDS011;2877;48.238;11.160;2023-04-03T16:36:10;1.53;;;0.93;;
5704;SDS011;2877;48.238;11.160;2023-04-03T16:38:35;0.90;;;0.90;;
5704;SDS011;2877;48.238;11.160;2023-04-03T16:41:01;1.07;;;0.90;;
5704;SDS011;2877;48.238;11.160;2023-04-03T16:43:29;1.13;;;1.00;;
5704;SDS011;2877;48.238;11.160;2023-04-03T16:45:56;1.83;;;1.07;;
5704;SDS011;2877;48.238;11.160;2023-04-03T16:48:21;1.17;;;1.17;;